Time;durP1;ratioP1;P1;durP2;ratioP2;P2;SDS_P1;SDS_P2;PMS_P1;PMS_P2;Temp;Humidity;BMP_temperature;BMP_pressure;BME280_temperature;BME280_humidity;BME280_pressure;Samples;Min_cycle;Max_cycle;Signal;HPM_P1;HPM_P2
2021/06/19 00:00:13;;;;;;;8.80;4.75;;;26.00;76.30;25.80;99446.00;;;;337326;28;96709;-94
2021/06/19 00:00:26;;;;;;;8.10;4.43;;;26.00;76.90;25.70;99439.00;;;;334514;29;92007;-94
2021/06/19 00:00:39;;;;;;;7.70;4.50;;;26.00;76.50;25.70;99439.00;;;;333529;29;94380;-95
2021/06/19 00:00:51;;;;;;;8.63;4.68;;;26.00;76.60;25.80;99437.00;;;;335946;28;91043;-94
2021/06/19 00:01:03;;;;;;;9.50;4.72;;;26.00;76.40;25.90;99446.00;;;;334378;28;97511;-93
2021/06/19 00:01:15;;;;;;;11.40;5.05;;;26.00;76.40;25.90;99444.00;;;;337278;28;90400;-95
2021/06/19 00:01:28;;;;;;;11.35;5.03;;;26.00;76.40;25.80;99435.00;;;;334662;29;95064;-95
2021/06/19 00:01:40;;;;;;;9.38;4.82;;;26.00;76.40;25.80;99436.00;;;;332988;29;91191;-94
2021/06/19 00:01:52;;;;;;;10.27;4.63;;;26.00;76.20;25.70;99447.00;;;;333689;29;96295;-94
2021/06/19 00:02:04;;;;;;;10.65;4.82;;;26.00;76.40;25.60;99440.00;;;;333135;29;92154;-95
2021/06/19 00:02:17;;;;;;;11.93;5.40;;;26.00;76.50;25.60;99435.00;;;;334475;29;96755;-94
2021/06/19 00:02:29;;;;;;;12.38;5.15;;;26.00;76.40;25.80;99432.00;;;;335729;28;91165;-94
2021/06/19 00:02:41;;;;;;;14.75;4.90;;;26.00;76.10;25.80;99440.00;;;;333474;29;96281;-95
2021/06/19 00:02:53;;;;;;;13.20;4.90;;;26.00;76.40;25.80;99435.00;;;;333021;29;92215;-93
2021/06/19 00:03:05;;;;;;;13.48;5.10;;;26.00;76.30;25.70;99437.00;;;;333427;29;93941;-94
2021/06/19 00:03:17;;;;;;;10.23;4.93;;;26.00;76.30;25.80;99438.00;;;;331937;29;91331;-95
2021/06/19 00:03:29;;;;;;;10.40;5.25;;;26.00;76.40;25.60;99438.00;;;;336002;28;96778;-95
2021/06/19 00:03:41;;;;;;;12.02;5.03;;;26.00;76.50;25.60;99436.00;;;;333217;29;92069;-95
2021/06/19 00:03:52;;;;;;;13.77;5.25;;;26.00;76.40;25.70;99441.00;;;;334651;29;96614;-94
2021/06/19 00:04:04;;;;;;;13.10;4.97;;;26.00;76.40;25.70;99439.00;;;;338235;28;92210;-94
2021/06/19 00:04:16;;;;;;;12.45;5.13;;;26.00;76.50;25.80;99440.00;;;;337175;28;97192;-95
2021/06/19 00:04:31;;;;;;;11.43;4.75;;;26.00;76.30;25.80;99438.00;;;;337161;28;92348;-93
2021/06/19 00:04:43;;;;;;;11.13;4.80;;;26.00;76.20;25.80;99436.00;;;;334334;29;96596;-92
2021/06/19 00:04:55;;;;;;;10.43;4.88;;;26.00;76.40;25.80;99444.00;;;;333035;29;91200;-93
2021/06/19 00:05:08;;;;;;;7.72;4.40;;;26.00;76.30;25.60;99446.00;;;;335980;28;97170;-94
2021/06/19 00:05:20;;;;;;;8.73;4.85;;;26.00;76.30;25.60;99443.00;;;;337056;28;91373;-93
2021/06/19 00:05:32;;;;;;;9.88;5.13;;;26.00;76.50;25.50;99438.00;;;;336085;28;92429;-93
2021/06/19 00:05:44;;;;;;;8.75;5.00;;;26.00;76.60;25.60;99443.00;;;;337033;28;91941;-92
2021/06/19 00:05:56;;;;;;;8.68;4.63;;;26.00;76.40;25.60;99438.00;;;;336062;28;93826;-95
2021/06/19 00:06:08;;;;;;;8.25;4.60;;;26.00;76.40;25.70;99434.00;;;;334619;29;91061;-95
2021/06/19 00:06:20;;;;;;;8.43;4.60;;;26.00;76.50;25.80;99436.00;;;;334621;29;93030;-94
2021/06/19 00:06:32;;;;;;;9.02;4.95;;;26.00;76.30;25.90;99441.00;;;;337147;28;91116;-94
2021/06/19 00:06:44;;;;;;;8.95;4.88;;;26.00;76.40;25.70;99437.00;;;;334704;29;96736;-94
2021/06/19 00:06:59;;;;;;;8.75;4.75;;;26.00;76.40;25.50;99445.00;;;;334363;29;92053;-94
2021/06/19 00:07:11;;;;;;;10.35;4.68;;;26.00;76.60;25.40;99439.00;;;;337168;28;93075;-94
2021/06/19 00:07:23;;;;;;;11.05;5.00;;;26.00;76.80;25.40;99444.00;;;;337255;28;90412;-93
2021/06/19 00:07:35;;;;;;;11.70;5.15;;;26.00;76.80;25.40;99446.00;;;;337402;28;93115;-95
2021/06/19 00:07:47;;;;;;;11.45;4.97;;;26.00;76.70;25.50;99452.00;;;;335366;28;92473;-93
2021/06/19 00:07:59;;;;;;;10.77;5.00;;;25.90;76.60;25.60;99440.00;;;;335000;28;96111;-94
2021/06/19 00:08:12;;;;;;;11.18;4.93;;;26.00;77.00;25.70;99448.00;;;;334664;29;92129;-94
2021/06/19 00:08:24;;;;;;;11.35;5.13;;;25.90;76.70;25.70;99444.00;;;;335939;28;95952;-94
2021/06/19 00:08:36;;;;;;;10.38;5.20;;;25.90;76.70;25.40;99443.00;;;;333300;29;91621;-95
2021/06/19 00:08:48;;;;;;;13.65;5.20;;;25.90;77.20;25.60;99448.00;;;;335236;28;95658;-94
2021/06/19 00:09:00;;;;;;;15.13;5.13;;;25.90;77.00;25.60;99445.00;;;;334449;29;92028;-94
2021/06/19 00:09:12;;;;;;;13.43;4.97;;;25.90;77.10;25.60;99451.00;;;;338588;28;95372;-94
2021/06/19 00:09:24;;;;;;;9.52;4.57;;;25.90;76.90;25.30;99448.00;;;;335822;28;90529;-95
2021/06/19 00:09:39;;;;;;;10.35;4.75;;;25.90;77.30;25.30;99447.00;;;;333419;29;96275;-94
2021/06/19 00:09:51;;;;;;;11.93;5.35;;;25.90;77.30;25.40;99445.00;;;;337050;28;92236;-94
2021/06/19 00:10:04;;;;;;;12.73;5.55;;;25.90;77.20;25.60;99448.00;;;;337371;28;94259;-94
2021/06/19 00:10:17;;;;;;;13.40;5.57;;;25.80;76.80;25.60;99442.00;;;;335781;28;91916;-94
2021/06/19 00:10:30;;;;;;;11.73;5.53;;;25.80;77.10;25.60;99451.00;;;;333511;29;94179;-94
2021/06/19 00:10:42;;;;;;;11.35;5.40;;;25.90;77.00;25.70;99449.00;;;;332896;29;91194;-93
2021/06/19 00:10:54;;;;;;;8.88;5.15;;;25.90;77.00;25.60;99448.00;;;;334036;29;92859;-94
2021/06/19 00:11:06;;;;;;;9.90;4.90;;;25.90;77.20;25.60;99444.00;;;;334505;29;92073;-95
2021/06/19 00:11:18;;;;;;;11.05;5.20;;;25.80;77.20;25.70;99443.00;;;;336712;28;95763;-94
2021/06/19 00:11:29;;;;;;;14.25;5.30;;;25.80;77.00;25.40;99450.00;;;;334585;29;91230;-94
2021/06/19 00:11:42;;;;;;;16.42;6.10;;;25.90;77.20;25.30;99445.00;;;;337260;28;96868;-94
2021/06/19 00:11:54;;;;;;;20.98;6.45;;;25.80;77.50;25.20;99450.00;;;;334560;29;91215;-94
2021/06/19 00:12:06;;;;;;;15.70;5.68;;;25.80;77.30;25.40;99446.00;;;;336074;28;95321;-94
2021/06/19 00:12:19;;;;;;;8.90;4.70;;;25.80;77.30;25.60;99441.00;;;;336918;28;92372;-94
2021/06/19 00:12:31;;;;;;;8.35;4.50;;;25.80;76.90;25.70;99446.00;;;;337197;28;97309;-93
2021/06/19 00:12:43;;;;;;;8.88;4.70;;;25.80;76.80;25.70;99443.00;;;;337199;28;92110;-94
2021/06/19 00:12:55;;;;;;;10.27;4.93;;;25.80;77.10;25.70;99444.00;;;;334603;29;96961;-94
2021/06/19 00:13:08;;;;;;;9.80;4.72;;;25.90;77.00;25.50;99455.00;;;;334603;29;91245;-94
2021/06/19 00:13:20;;;;;;;9.77;4.53;;;25.90;77.50;25.50;99444.00;;;;337359;28;93381;-92
2021/06/19 00:13:32;;;;;;;10.05;4.80;;;25.80;77.20;25.60;99447.00;;;;333276;29;91220;-95
2021/06/19 00:13:44;;;;;;;9.05;4.97;;;25.80;77.30;25.70;99444.00;;;;338257;28;93818;-94
2021/06/19 00:13:56;;;;;;;9.65;5.07;;;25.80;77.40;25.70;99443.00;;;;333084;29;92112;-93
2021/06/19 00:14:08;;;;;;;9.00;5.00;;;25.80;77.10;25.70;99450.00;;;;334700;29;95668;-93
2021/06/19 00:14:20;;;;;;;9.30;5.35;;;25.80;77.10;25.80;99442.00;;;;336548;28;92128;-93
2021/06/19 00:14:33;;;;;;;10.77;5.57;;;25.90;77.30;25.60;99445.00;;;;337234;28;95307;-90
2021/06/19 00:14:46;;;;;;;11.63;5.10;;;25.80;77.50;25.60;99442.00;;;;337150;28;92028;-95
2021/06/19 00:14:57;;;;;;;10.65;5.15;;;25.80;77.30;25.60;99441.00;;;;334489;29;96737;-94
2021/06/19 00:15:11;;;;;;;10.55;4.88;;;25.80;77.20;25.60;99441.00;;;;335871;28;92002;-94
2021/06/19 00:15:24;;;;;;;9.40;5.03;;;25.80;77.30;25.40;99446.00;;;;337267;28;95446;-92
2021/06/19 00:15:36;;;;;;;7.60;4.55;;;25.80;77.20;25.40;99443.00;;;;335855;28;91216;-94
2021/06/19 00:15:48;;;;;;;8.45;4.30;;;25.80;77.20;25.40;99445.00;;;;334640;29;94982;-94
2021/06/19 00:16:00;;;;;;;9.30;4.30;;;25.80;77.20;25.50;99446.00;;;;335966;28;91965;-94
2021/06/19 00:16:11;;;;;;;12.68;4.90;;;25.80;77.20;25.30;99441.00;;;;337247;28;97595;-93
2021/06/19 00:16:23;;;;;;;14.38;5.45;;;25.80;77.50;25.20;99444.00;;;;335848;28;92058;-92
2021/06/19 00:16:35;;;;;;;13.50;5.45;;;25.80;77.60;25.30;99447.00;;;;336022;28;95555;-94
2021/06/19 00:16:47;;;;;;;11.35;5.03;;;25.80;77.70;25.20;99445.00;;;;336725;28;92215;-93
2021/06/19 00:17:00;;;;;;;10.43;4.80;;;25.70;77.50;25.10;99446.00;;;;332380;29;97644;-94
2021/06/19 00:17:13;;;;;;;12.50;5.20;;;25.70;77.80;25.20;99451.00;;;;337096;28;91201;-93
2021/06/19 00:17:25;;;;;;;13.27;5.50;;;25.70;77.70;25.20;99451.00;;;;332108;29;96602;-95
2021/06/19 00:17:37;;;;;;;10.30;5.10;;;25.70;77.70;25.40;99446.00;;;;333144;29;91311;-93
2021/06/19 00:17:49;;;;;;;9.25;4.63;;;25.70;77.40;25.40;99438.00;;;;331789;29;95514;-94
2021/06/19 00:18:01;;;;;;;9.52;4.65;;;25.70;77.80;25.40;99443.00;;;;333266;29;92275;-95
2021/06/19 00:18:13;;;;;;;11.10;4.70;;;25.70;77.70;25.40;99441.00;;;;334703;29;96375;-92
2021/06/19 00:18:25;;;;;;;9.27;4.82;;;25.70;77.60;25.50;99448.00;;;;335776;28;93017;-94
2021/06/19 00:18:37;;;;;;;9.88;5.00;;;25.70;77.50;25.50;99445.00;;;;334786;29;95250;-93
2021/06/19 00:18:49;;;;;;;9.40;5.25;;;25.70;77.70;25.40;99443.00;;;;334436;29;92060;-94
2021/06/19 00:19:02;;;;;;;11.60;5.50;;;25.70;77.50;25.30;99444.00;;;;337296;28;94109;-93
2021/06/19 00:19:14;;;;;;;12.05;5.40;;;25.70;78.00;25.40;99443.00;;;;335776;28;92015;-93
2021/06/19 00:19:26;;;;;;;10.20;5.03;;;25.70;78.20;25.40;99439.00;;;;335942;28;96607;-94
2021/06/19 00:19:38;;;;;;;10.70;4.95;;;25.60;77.90;25.50;99441.00;;;;333233;29;90470;-94
2021/06/19 00:19:50;;;;;;;8.88;5.55;;;25.60;78.40;25.50;99450.00;;;;334290;29;92072;-93
2021/06/19 00:20:12;;;;;;;10.02;5.55;;;25.60;77.70;25.50;99444.00;;;;337013;28;92200;-94
2021/06/19 00:20:26;;;;;;;13.32;5.20;;;25.60;77.90;25.50;99450.00;;;;336009;28;93785;-93
2021/06/19 00:20:38;;;;;;;12.68;5.00;;;25.70;78.20;25.40;99443.00;;;;335799;28;91996;-94
2021/06/19 00:20:51;;;;;;;12.90;5.18;;;25.60;77.70;25.30;99443.00;;;;337184;28;92739;-94
2021/06/19 00:21:03;;;;;;;14.88;5.20;;;25.70;78.60;25.30;99449.00;;;;334341;29;92191;-94
2021/06/19 00:21:15;;;;;;;15.70;5.25;;;25.70;78.00;25.40;99440.00;;;;335951;28;96396;-94
2021/06/19 00:21:27;;;;;;;12.43;5.20;;;25.70;77.70;25.40;99438.00;;;;337148;28;91897;-94
2021/06/19 00:21:41;;;;;;;12.18;5.15;;;25.70;77.90;25.40;99445.00;;;;334620;29;97501;-93
2021/06/19 00:21:53;;;;;;;14.52;5.18;;;25.70;78.10;25.30;99442.00;;;;334615;29;90398;-95
2021/06/19 00:22:05;;;;;;;14.50;5.60;;;25.60;78.10;25.20;99447.00;;;;336027;28;95388;-93
2021/06/19 00:22:17;;;;;;;13.05;5.35;;;25.60;78.00;25.20;99444.00;;;;334425;29;91150;-93
2021/06/19 00:22:29;;;;;;;10.90;5.13;;;25.60;78.10;25.30;99448.00;;;;334641;29;95282;-93
2021/06/19 00:22:41;;;;;;;10.07;5.20;;;25.60;77.90;25.30;99443.00;;;;334437;29;91995;-94
2021/06/19 00:22:53;;;;;;;9.88;5.47;;;25.60;77.70;25.30;99442.00;;;;334355;29;95392;-94
2021/06/19 00:23:05;;;;;;;10.13;5.40;;;25.60;78.00;25.20;99448.00;;;;332857;29;92171;-94
2021/06/19 00:23:17;;;;;;;9.40;5.43;;;25.60;78.00;25.30;99441.00;;;;335449;28;96847;-94
2021/06/19 00:23:29;;;;;;;9.38;5.45;;;25.60;78.30;25.40;99433.00;;;;335839;28;91958;-94
2021/06/19 00:23:41;;;;;;;10.55;5.10;;;25.60;77.90;25.50;99444.00;;;;334726;29;92772;-93
2021/06/19 00:23:53;;;;;;;14.18;5.20;;;25.60;78.10;25.50;99448.00;;;;334362;29;91521;-94
2021/06/19 00:24:05;;;;;;;13.50;5.55;;;25.60;78.30;25.30;99444.00;;;;334711;29;95279;-93
2021/06/19 00:24:22;;;;;;;15.05;5.88;;;25.70;78.30;25.30;99451.00;;;;331982;29;92169;-94
2021/06/19 00:24:37;;;;;;;13.50;5.15;;;25.60;78.00;25.40;99440.00;;;;334653;29;97025;-95
2021/06/19 00:24:48;;;;;;;10.18;5.38;;;25.60;77.80;25.50;99449.00;;;;333176;29;92076;-94
2021/06/19 00:25:00;;;;;;;10.70;5.30;;;25.60;77.90;25.40;99442.00;;;;337056;28;95976;-93
2021/06/19 00:25:14;;;;;;;9.00;5.35;;;25.70;78.10;25.30;99451.00;;;;335831;28;91978;-94
2021/06/19 00:25:27;;;;;;;9.32;5.07;;;25.60;78.00;25.30;99447.00;;;;335831;28;96044;-95
2021/06/19 00:25:39;;;;;;;9.65;4.93;;;25.60;78.20;25.10;99441.00;;;;337080;28;91224;-94
2021/06/19 00:25:51;;;;;;;9.90;5.05;;;25.70;78.40;25.00;99446.00;;;;336814;28;96560;-94
2021/06/19 00:26:03;;;;;;;13.70;5.65;;;25.60;78.30;25.10;99451.00;;;;333151;29;91301;-93
2021/06/19 00:26:15;;;;;;;13.77;5.93;;;25.60;78.20;25.30;99444.00;;;;337188;28;96060;-93
2021/06/19 00:26:26;;;;;;;11.27;5.40;;;25.60;77.90;25.40;99446.00;;;;337055;28;92163;-94
2021/06/19 00:26:38;;;;;;;9.95;4.80;;;25.60;77.80;25.30;99451.00;;;;336058;28;96161;-93
2021/06/19 00:26:51;;;;;;;11.23;5.47;;;25.60;78.20;25.30;99447.00;;;;335628;28;92340;-94
2021/06/19 00:27:04;;;;;;;13.48;5.95;;;25.60;78.10;25.40;99438.00;;;;333306;29;96033;-93
2021/06/19 00:27:16;;;;;;;13.10;5.50;;;25.60;77.90;25.30;99445.00;;;;330708;29;91954;-93
2021/06/19 00:27:28;;;;;;;10.75;5.18;;;25.60;77.90;25.30;99440.00;;;;334512;29;94044;-93
2021/06/19 00:27:40;;;;;;;8.10;4.95;;;25.60;78.00;25.40;99442.00;;;;334342;29;92025;-93
2021/06/19 00:27:52;;;;;;;7.65;4.90;;;25.60;77.70;25.40;99449.00;;;;335906;28;95673;-94
2021/06/19 00:28:04;;;;;;;8.27;4.70;;;25.60;77.90;25.40;99442.00;;;;338535;28;90448;-94
2021/06/19 00:28:17;;;;;;;11.68;5.05;;;25.60;77.90;25.30;99446.00;;;;337603;28;91943;-94
2021/06/19 00:28:29;;;;;;;13.65;5.07;;;25.60;77.90;25.40;99446.00;;;;337280;28;92023;-94
2021/06/19 00:28:40;;;;;;;14.40;5.25;;;25.60;77.90;25.40;99443.00;;;;334833;29;94344;-94
2021/06/19 00:28:52;;;;;;;12.20;5.28;;;25.70;77.80;25.40;99452.00;;;;339781;28;92155;-94
2021/06/19 00:29:04;;;;;;;9.35;5.10;;;25.70;78.00;25.40;99447.00;;;;337426;28;96890;-93
2021/06/19 00:29:16;;;;;;;9.70;5.03;;;25.70;78.00;25.40;99445.00;;;;335260;28;91247;-94
2021/06/19 00:29:30;;;;;;;10.73;5.45;;;25.70;78.10;25.40;99449.00;;;;336187;28;95713;-95
2021/06/19 00:29:42;;;;;;;10.85;5.47;;;25.60;78.10;25.50;99450.00;;;;334767;29;92013;-94
2021/06/19 00:29:53;;;;;;;10.60;4.75;;;25.70;78.00;25.40;99450.00;;;;334967;29;94284;-94
2021/06/19 00:30:07;;;;;;;10.82;4.63;;;25.70;77.90;25.60;99446.00;;;;333430;29;91269;-94
2021/06/19 00:30:20;;;;;;;9.60;4.65;;;25.70;77.90;25.70;99438.00;;;;337223;28;96516;-94
2021/06/19 00:30:32;;;;;;;8.82;4.50;;;25.70;77.80;25.50;99446.00;;;;333170;29;92097;-94
2021/06/19 00:30:44;;;;;;;9.77;5.30;;;25.70;78.00;25.50;99447.00;;;;334875;29;94925;-95
2021/06/19 00:30:56;;;;;;;11.35;5.68;;;25.70;78.00;25.40;99446.00;;;;333567;29;91152;-94
2021/06/19 00:31:08;;;;;;;13.00;6.10;;;25.70;77.90;25.60;99446.00;;;;336092;28;96372;-94
2021/06/19 00:31:20;;;;;;;12.52;5.57;;;25.70;78.30;25.60;99444.00;;;;333299;29;91151;-93
2021/06/19 00:31:32;;;;;;;9.05;5.25;;;25.70;77.70;25.50;99448.00;;;;333574;29;96581;-94
2021/06/19 00:31:44;;;;;;;10.05;5.07;;;25.80;78.00;25.50;99451.00;;;;333608;29;91886;-94
2021/06/19 00:31:56;;;;;;;12.18;5.32;;;25.70;77.80;25.30;99443.00;;;;334851;28;96984;-94
2021/06/19 00:32:08;;;;;;;14.73;6.18;;;25.70;77.90;25.30;99444.00;;;;333452;29;91213;-94
2021/06/19 00:32:20;;;;;;;15.32;6.38;;;25.70;78.00;25.20;99446.00;;;;337534;28;93116;-94
2021/06/19 00:32:33;;;;;;;13.05;5.88;;;25.70;77.80;25.30;99449.00;;;;335831;28;92003;-94
2021/06/19 00:32:45;;;;;;;10.13;4.78;;;25.70;77.90;25.40;99441.00;;;;337299;28;95512;-94
2021/06/19 00:32:57;;;;;;;12.23;5.07;;;25.70;77.90;25.50;99443.00;;;;335975;28;91944;-95
2021/06/19 00:33:09;;;;;;;14.55;5.68;;;25.70;77.80;25.50;99445.00;;;;337633;28;93225;-94
2021/06/19 00:33:20;;;;;;;14.55;6.30;;;25.70;78.20;25.50;99442.00;;;;333523;29;92219;-92
2021/06/19 00:33:32;;;;;;;13.00;6.07;;;25.70;78.10;25.30;99440.00;;;;337456;28;96717;-94
2021/06/19 00:33:44;;;;;;;10.02;5.47;;;25.70;78.10;25.10;99437.00;;;;332194;29;92032;-94
2021/06/19 00:33:57;;;;;;;9.55;5.65;;;25.70;78.20;25.00;99441.00;;;;336306;28;94199;-94
2021/06/19 00:34:09;;;;;;;10.02;5.68;;;25.70;78.20;25.00;99448.00;;;;333571;29;91119;-94
2021/06/19 00:34:21;;;;;;;11.20;5.43;;;25.60;78.20;25.20;99448.00;;;;336197;28;94424;-94
2021/06/19 00:34:32;;;;;;;13.63;5.15;;;25.60;78.00;25.40;99445.00;;;;334693;29;91486;-94
2021/06/19 00:34:45;;;;;;;12.90;4.57;;;25.70;78.10;25.40;99440.00;;;;333828;28;92122;-94
2021/06/19 00:34:57;;;;;;;12.90;4.82;;;25.60;78.20;25.30;99442.00;;;;338277;28;91596;-93
2021/06/19 00:35:09;;;;;;;12.43;5.28;;;25.60;78.40;25.30;99444.00;;;;336157;28;97430;-93
2021/06/19 00:35:21;;;;;;;13.32;5.32;;;25.60;78.20;25.50;99440.00;;;;336011;28;92133;-94
2021/06/19 00:35:33;;;;;;;10.57;4.97;;;25.60;77.90;25.60;99448.00;;;;336287;28;93834;-94
2021/06/19 00:35:45;;;;;;;9.45;4.70;;;25.60;78.00;25.60;99445.00;;;;336249;28;91983;-95
2021/06/19 00:35:56;;;;;;;10.32;5.05;;;25.60;78.00;25.50;99445.00;;;;336288;28;96842;-94
2021/06/19 00:36:08;;;;;;;11.73;5.50;;;25.70;78.00;25.40;99443.00;;;;336048;28;91375;-94
2021/06/19 00:36:20;;;;;;;12.05;5.55;;;25.60;78.20;25.40;99443.00;;;;333523;29;95911;-93
2021/06/19 00:36:32;;;;;;;12.48;5.60;;;25.60;78.00;25.50;99450.00;;;;336058;28;92053;-94
2021/06/19 00:36:44;;;;;;;11.45;5.15;;;25.60;78.60;25.50;99441.00;;;;337513;28;95572;-94
2021/06/19 00:36:56;;;;;;;9.90;4.97;;;25.70;78.20;25.40;99445.00;;;;337373;28;91045;-94
2021/06/19 00:37:07;;;;;;;10.90;5.15;;;25.60;78.20;25.60;99448.00;;;;337200;28;95817;-94
2021/06/19 00:37:20;;;;;;;13.00;5.55;;;25.60;78.00;25.60;99451.00;;;;338746;28;91908;-93
2021/06/19 00:37:33;;;;;;;11.50;5.22;;;25.70;78.20;25.50;99449.00;;;;336146;28;95734;-93
2021/06/19 00:37:47;;;;;;;10.15;4.68;;;25.70;78.30;25.30;99452.00;;;;335407;28;96559;-94
2021/06/19 00:37:59;;;;;;;12.20;4.82;;;25.70;78.50;25.30;99447.00;;;;334771;29;95661;-95
2021/06/19 00:38:11;;;;;;;15.52;5.22;;;25.70;78.20;25.50;99448.00;;;;336138;28;90395;-94
2021/06/19 00:38:23;;;;;;;14.88;5.40;;;25.60;78.00;25.50;99449.00;;;;334821;29;96490;-94
2021/06/19 00:38:35;;;;;;;11.68;4.90;;;25.60;78.00;25.50;99443.00;;;;337205;28;91454;-94
2021/06/19 00:38:46;;;;;;;10.48;5.13;;;25.70;78.20;25.40;99458.00;;;;332247;29;93336;-94
2021/06/19 00:38:58;;;;;;;11.35;5.45;;;25.70;78.40;25.50;99453.00;;;;334694;29;92036;-94
2021/06/19 00:39:10;;;;;;;9.63;5.45;;;25.70;78.20;25.60;99453.00;;;;334783;29;96091;-93
2021/06/19 00:39:22;;;;;;;9.80;5.35;;;25.70;78.20;25.60;99453.00;;;;336102;28;91129;-95
2021/06/19 00:39:37;;;;;;;9.00;5.00;;;25.70;78.30;25.50;99448.00;;;;333366;29;96461;-93
2021/06/19 00:39:49;;;;;;;8.35;4.60;;;25.70;78.20;25.40;99445.00;;;;334718;29;91250;-93
2021/06/19 00:40:05;;;;;;;10.00;5.07;;;25.70;78.10;25.40;99448.00;;;;333600;29;97037;-95
2021/06/19 00:40:18;;;;;;;9.48;5.47;;;25.70;78.70;25.30;99451.00;;;;335998;28;91301;-94
2021/06/19 00:40:30;;;;;;;9.35;5.43;;;25.70;78.20;25.50;99454.00;;;;333555;29;94758;-95
2021/06/19 00:40:42;;;;;;;12.55;5.60;;;25.70;78.10;25.40;99453.00;;;;335581;28;92002;-94
2021/06/19 00:40:54;;;;;;;10.85;4.97;;;25.70;77.90;25.40;99449.00;;;;336778;28;93998;-94
2021/06/19 00:41:06;;;;;;;9.82;4.78;;;25.70;78.00;25.50;99454.00;;;;336085;28;91107;-94
2021/06/19 00:41:18;;;;;;;7.13;4.78;;;25.70;78.00;25.50;99447.00;;;;336918;28;95568;-94
2021/06/19 00:41:30;;;;;;;8.30;4.60;;;25.70;78.20;25.60;99449.00;;;;334766;29;92041;-95
2021/06/19 00:41:41;;;;;;;8.48;4.53;;;25.70;77.90;25.70;99453.00;;;;333451;29;96702;-94
2021/06/19 00:41:53;;;;;;;8.07;4.50;;;25.80;78.00;25.70;99447.00;;;;330856;29;92032;-95
2021/06/19 00:42:05;;;;;;;11.32;5.05;;;25.70;78.20;25.40;99451.00;;;;334872;29;95719;-94
2021/06/19 00:42:21;;;;;;;12.32;5.03;;;25.70;78.00;25.10;99449.00;;;;332154;29;91184;-94
2021/06/19 00:42:33;;;;;;;11.77;4.72;;;25.70;78.30;25.30;99446.00;;;;334924;29;92590;-93
2021/06/19 00:43:00;;;;;;;11.07;4.93;;;25.60;78.30;25.30;99446.00;;;;336004;28;92000;-94
2021/06/19 00:43:11;;;;;;;10.07;4.75;;;25.70;78.50;25.40;99446.00;;;;334857;29;95690;-93
2021/06/19 00:43:23;;;;;;;11.05;4.63;;;25.70;78.50;25.50;99452.00;;;;335941;28;91966;-92
2021/06/19 00:43:35;;;;;;;11.70;4.82;;;25.70;78.20;25.50;99451.00;;;;332196;29;95521;-93
2021/06/19 00:43:47;;;;;;;10.38;4.90;;;25.60;78.10;25.30;99455.00;;;;336498;28;91382;-93
2021/06/19 00:43:59;;;;;;;10.93;5.10;;;25.60;78.20;25.50;99451.00;;;;339230;28;96853;-95
2021/06/19 00:44:17;;;;;;;9.63;4.65;;;25.60;78.10;25.60;99453.00;;;;337367;28;91948;-93
2021/06/19 00:44:29;;;;;;;8.80;4.50;;;25.70;78.10;25.40;99449.00;;;;337531;28;95076;-93
2021/06/19 00:44:41;;;;;;;8.15;4.68;;;25.60;78.10;25.50;99458.00;;;;334946;29;91437;-94
2021/06/19 00:44:56;;;;;;;8.60;4.65;;;25.70;78.10;25.50;99446.00;;;;336058;28;97979;-92
2021/06/19 00:45:08;;;;;;;10.57;4.72;;;25.70;78.10;25.60;99451.00;;;;334754;29;91932;-92
2021/06/19 00:45:20;;;;;;;10.88;4.65;;;25.70;78.10;25.40;99444.00;;;;336155;28;96731;-94
2021/06/19 00:45:36;;;;;;;11.43;4.53;;;25.70;78.10;25.40;99452.00;;;;333438;29;91983;-93
2021/06/19 00:45:48;;;;;;;10.50;4.68;;;25.70;78.30;25.40;99447.00;;;;336232;28;93485;-93
2021/06/19 00:46:00;;;;;;;8.82;4.70;;;25.70;78.90;25.50;99450.00;;;;334825;29;91922;-94
2021/06/19 00:46:12;;;;;;;9.77;4.70;;;25.70;78.20;25.40;99453.00;;;;335993;28;96686;-93
2021/06/19 00:46:24;;;;;;;11.15;4.60;;;25.70;78.20;25.30;99452.00;;;;334619;29;92164;-94
2021/06/19 00:46:36;;;;;;;9.35;4.47;;;25.70;78.40;25.30;99451.00;;;;337580;28;93513;-94
2021/06/19 00:46:52;;;;;;;11.27;4.88;;;25.60;78.40;25.50;99446.00;;;;332938;29;91409;-93
2021/06/19 00:47:04;;;;;;;9.75;4.72;;;25.60;78.20;25.40;99450.00;;;;337230;28;93793;-93
2021/06/19 00:47:16;;;;;;;9.13;4.63;;;25.60;78.40;25.20;99449.00;;;;336647;28;92016;-94
2021/06/19 00:47:27;;;;;;;11.35;4.88;;;25.60;78.60;25.20;99455.00;;;;334962;29;95654;-93
2021/06/19 00:47:39;;;;;;;10.88;5.13;;;25.60;78.60;25.30;99452.00;;;;333616;29;92012;-94
2021/06/19 00:47:52;;;;;;;9.88;5.07;;;25.60;78.50;25.20;99451.00;;;;334905;29;93156;-93
2021/06/19 00:48:10;;;;;;;9.02;5.22;;;25.60;78.60;25.30;99451.00;;;;337499;28;91975;-93
2021/06/19 00:48:23;;;;;;;8.82;5.18;;;25.50;78.50;25.30;99452.00;;;;335548;28;96731;-93
2021/06/19 00:48:35;;;;;;;9.93;5.28;;;25.50;78.70;25.20;99454.00;;;;332228;29;91954;-94
2021/06/19 00:48:49;;;;;;;11.05;5.25;;;25.50;78.60;25.10;99455.00;;;;334985;29;94175;-93
2021/06/19 00:49:01;;;;;;;11.10;4.95;;;25.50;78.80;25.20;99455.00;;;;334740;29;90460;-95
2021/06/19 00:49:13;;;;;;;10.50;5.38;;;25.50;78.80;25.20;99450.00;;;;333609;29;96673;-94
2021/06/19 00:49:25;;;;;;;12.45;5.63;;;25.50;78.90;25.10;99448.00;;;;337316;28;92143;-93
2021/06/19 00:49:37;;;;;;;10.63;5.40;;;25.50;78.80;25.30;99453.00;;;;337497;28;94095;-94
2021/06/19 00:49:49;;;;;;;10.98;5.30;;;25.50;78.60;25.30;99454.00;;;;336793;28;91338;-95
2021/06/19 00:50:00;;;;;;;12.27;5.22;;;25.50;78.80;25.20;99450.00;;;;337472;28;94303;-93
2021/06/19 00:50:13;;;;;;;11.20;5.18;;;25.50;78.70;25.30;99449.00;;;;336089;28;92073;-95
2021/06/19 00:50:26;;;;;;;7.70;4.72;;;25.50;79.20;25.20;99450.00;;;;337609;28;92207;-94
2021/06/19 00:50:39;;;;;;;9.13;5.05;;;25.60;78.90;25.20;99447.00;;;;335920;28;91851;-92
2021/06/19 00:50:51;;;;;;;9.73;5.50;;;25.50;78.80;25.40;99443.00;;;;334644;29;96572;-93
2021/06/19 00:51:03;;;;;;;8.80;5.03;;;25.50;78.60;25.40;99448.00;;;;333488;29;91317;-95
2021/06/19 00:51:15;;;;;;;10.43;5.07;;;25.60;78.70;25.40;99446.00;;;;336302;28;94025;-94
2021/06/19 00:51:27;;;;;;;11.70;4.78;;;25.50;78.70;25.40;99443.00;;;;335926;28;91139;-94
2021/06/19 00:51:41;;;;;;;13.10;5.22;;;25.50;78.60;25.30;99443.00;;;;334790;29;96872;-94
2021/06/19 00:51:53;;;;;;;12.88;4.82;;;25.60;78.60;25.30;99450.00;;;;333428;29;91999;-93
2021/06/19 00:52:05;;;;;;;9.30;4.63;;;25.50;78.50;25.10;99448.00;;;;333575;29;97062;-94
2021/06/19 00:52:17;;;;;;;10.93;5.13;;;25.60;78.70;25.20;99446.00;;;;334692;29;91968;-95
2021/06/19 00:52:29;;;;;;;15.32;5.60;;;25.50;78.60;25.30;99435.00;;;;334695;29;97323;-92
2021/06/19 00:52:40;;;;;;;14.15;5.60;;;25.50;78.60;25.20;99452.00;;;;333354;29;92033;-93
2021/06/19 00:52:53;;;;;;;13.38;5.18;;;25.50;78.60;25.20;99446.00;;;;338504;28;95470;-93
2021/06/19 00:53:04;;;;;;;11.00;5.40;;;25.50;78.60;25.20;99454.00;;;;333466;29;90539;-94
2021/06/19 00:53:16;;;;;;;11.75;5.60;;;25.60;78.90;25.20;99454.00;;;;336136;28;95663;-95
2021/06/19 00:53:28;;;;;;;12.65;5.82;;;25.50;78.80;25.30;99450.00;;;;333501;29;92235;-94
2021/06/19 00:53:40;;;;;;;11.10;5.65;;;25.50;78.60;25.20;99447.00;;;;336071;28;97839;-94
2021/06/19 00:53:52;;;;;;;9.25;5.00;;;25.50;78.90;25.30;99446.00;;;;334569;29;91253;-92
2021/06/19 00:54:05;;;;;;;9.05;4.97;;;25.50;78.60;25.40;99446.00;;;;333317;29;93799;-92
2021/06/19 00:54:18;;;;;;;10.95;4.85;;;25.50;78.60;25.50;99449.00;;;;337260;28;92004;-94
2021/06/19 00:54:30;;;;;;;12.05;4.97;;;25.50;78.50;25.40;99449.00;;;;336171;28;96931;-95
2021/06/19 00:54:41;;;;;;;11.55;4.80;;;25.50;78.70;25.40;99450.00;;;;336106;28;92028;-94
2021/06/19 00:54:53;;;;;;;13.32;5.10;;;25.50;78.80;25.30;99456.00;;;;337327;28;96727;-93
2021/06/19 00:55:06;;;;;;;12.45;5.18;;;25.50;78.80;25.10;99453.00;;;;334732;29;91368;-94
2021/06/19 00:55:19;;;;;;;12.18;5.28;;;25.50;78.70;25.30;99452.00;;;;336419;28;96021;-95
2021/06/19 00:55:31;;;;;;;11.45;4.93;;;25.50;78.80;25.20;99455.00;;;;333703;29;91960;-93